createdAt,value
2019-01-22T00:00:27.088Z,1012.24
2019-01-22T00:01:07.649Z,1012.19
2019-01-22T00:01:48.197Z,1012.21
2019-01-22T00:02:28.768Z,1012.21
2019-01-22T00:03:09.310Z,1012.2
2019-01-22T00:03:49.872Z,1012.2
2019-01-22T00:04:30.433Z,1012.21
2019-01-22T00:05:10.987Z,1012.2
2019-01-22T00:05:51.536Z,1012.18
2019-01-22T00:06:32.089Z,1012.16
2019-01-22T00:07:12.658Z,1012.16
2019-01-22T00:07:53.212Z,1012.14
2019-01-22T00:08:33.766Z,1012.11
2019-01-22T00:09:14.320Z,1012.16
2019-01-22T00:09:54.865Z,1012.12
2019-01-22T00:10:35.443Z,1012.1
2019-01-22T00:11:15.994Z,1012.07
2019-01-22T00:11:56.550Z,1012.11
2019-01-22T00:12:37.118Z,1012.05
2019-01-22T00:13:17.678Z,1012.06
2019-01-22T00:13:58.232Z,1012.1
2019-01-22T00:14:38.798Z,1012.05
2019-01-22T00:15:19.354Z,1012.07
2019-01-22T00:15:59.923Z,1012.05
2019-01-22T00:16:40.492Z,1012.04
2019-01-22T00:17:21.058Z,1012.01
2019-01-22T00:18:01.626Z,1012.04
2019-01-22T00:18:42.181Z,1011.99
2019-01-22T00:19:22.727Z,1012.02
2019-01-22T00:20:03.278Z,1012.03
2019-01-22T00:20:43.837Z,1012.04
2019-01-22T00:21:24.392Z,1012
2019-01-22T00:22:04.950Z,1012.05
2019-01-22T00:22:45.489Z,1012.04
2019-01-22T00:23:26.053Z,1011.98
2019-01-22T00:24:06.634Z,1012.02
2019-01-22T00:24:47.190Z,1012.02
2019-01-22T00:25:27.736Z,1012.02
2019-01-22T00:26:08.287Z,1012.02
2019-01-22T00:26:48.867Z,1012.03
2019-01-22T00:27:29.458Z,1012
2019-01-22T00:28:10.018Z,1012.01
2019-01-22T00:28:50.592Z,1012.04
2019-01-22T00:29:31.146Z,1011.98
2019-01-22T00:30:11.699Z,1012.02
2019-01-22T00:30:52.238Z,1012.01
2019-01-22T00:31:32.790Z,1012.03
2019-01-22T00:32:13.370Z,1011.97
2019-01-22T00:32:53.927Z,1011.97
2019-01-22T00:33:34.479Z,1011.95
2019-01-22T00:34:15.054Z,1012
2019-01-22T00:34:55.630Z,1011.97
2019-01-22T00:35:36.201Z,1011.92
2019-01-22T00:36:16.737Z,1011.92
2019-01-22T00:36:57.295Z,1011.91
2019-01-22T00:37:37.847Z,1011.96
2019-01-22T00:38:18.396Z,1011.97
2019-01-22T00:38:58.950Z,1011.92
2019-01-22T00:39:39.493Z,1011.93
2019-01-22T00:40:20.059Z,1011.96
2019-01-22T00:41:00.600Z,1011.96
2019-01-22T00:41:41.199Z,1011.91
2019-01-22T00:42:21.754Z,1011.92
2019-01-22T00:43:02.297Z,1011.89
2019-01-22T00:43:42.868Z,1011.9
2019-01-22T00:44:23.418Z,1011.94
2019-01-22T00:45:04.047Z,1011.9
2019-01-22T00:45:44.602Z,1011.86
2019-01-22T00:46:25.179Z,1011.89
2019-01-22T00:47:05.734Z,1011.89
2019-01-22T00:47:46.278Z,1011.89
2019-01-22T00:48:26.823Z,1011.87
2019-01-22T00:49:07.394Z,1011.85
2019-01-22T00:49:47.955Z,1011.88
2019-01-22T00:50:28.514Z,1011.87
2019-01-22T00:51:09.076Z,1011.83
2019-01-22T00:51:49.650Z,1011.8
2019-01-22T00:52:30.220Z,1011.78
2019-01-22T00:53:10.817Z,1011.84
2019-01-22T00:53:51.362Z,1011.83
2019-01-22T00:54:31.938Z,1011.79
2019-01-22T00:55:12.507Z,1011.82
2019-01-22T00:55:53.061Z,1011.82
2019-01-22T00:56:33.636Z,1011.78
2019-01-22T00:57:14.185Z,1011.76
2019-01-22T00:57:54.740Z,1011.76
2019-01-22T00:58:35.326Z,1011.73
2019-01-22T00:59:15.870Z,1011.76
2019-01-22T00:59:56.417Z,1011.74
2019-01-22T01:00:37.017Z,1011.74
2019-01-22T01:01:17.588Z,1011.74
2019-01-22T01:01:58.149Z,1011.74
2019-01-22T01:02:38.705Z,1011.7
2019-01-22T01:03:19.293Z,1011.74
2019-01-22T01:03:59.890Z,1011.75
2019-01-22T01:04:40.436Z,1011.73
2019-01-22T01:05:20.990Z,1011.71
2019-01-22T01:06:01.553Z,1011.65
2019-01-22T01:06:42.102Z,1011.73
2019-01-22T01:07:22.926Z,1011.7
2019-01-22T01:08:03.491Z,1011.65
2019-01-22T01:08:44.047Z,1011.66
2019-01-22T01:09:24.606Z,1011.71
2019-01-22T01:10:05.205Z,1011.66
2019-01-22T01:10:45.740Z,1011.68
2019-01-22T01:11:26.300Z,1011.66
2019-01-22T01:12:06.849Z,1011.69
2019-01-22T01:12:47.410Z,1011.7
2019-01-22T01:13:27.972Z,1011.69
2019-01-22T01:14:08.607Z,1011.68
2019-01-22T01:14:49.155Z,1011.7
2019-01-22T01:15:29.763Z,1011.68
2019-01-22T01:16:10.334Z,1011.67
2019-01-22T01:16:50.884Z,1011.68
2019-01-22T01:17:31.440Z,1011.67
2019-01-22T01:18:11.993Z,1011.69
2019-01-22T01:18:52.535Z,1011.66
2019-01-22T01:19:33.091Z,1011.63
2019-01-22T01:20:13.651Z,1011.64
2019-01-22T01:20:54.222Z,1011.67
2019-01-22T01:21:34.771Z,1011.61
2019-01-22T01:22:15.354Z,1011.62
2019-01-22T01:22:55.911Z,1011.63
2019-01-22T01:23:36.498Z,1011.64
2019-01-22T01:24:17.042Z,1011.64
2019-01-22T01:24:57.587Z,1011.62
2019-01-22T01:25:38.155Z,1011.61
2019-01-22T01:26:18.714Z,1011.6
2019-01-22T01:26:59.269Z,1011.58
2019-01-22T01:27:39.845Z,1011.56
2019-01-22T01:28:20.408Z,1011.53
2019-01-22T01:29:00.954Z,1011.5
2019-01-22T01:29:41.505Z,1011.57
2019-01-22T01:30:22.085Z,1011.53
2019-01-22T01:31:02.636Z,1011.54
2019-01-22T01:31:43.204Z,1011.52
2019-01-22T01:32:23.770Z,1011.49
2019-01-22T01:33:04.358Z,1011.46
2019-01-22T01:33:44.939Z,1011.45
2019-01-22T01:34:25.505Z,1011.43
2019-01-22T01:35:06.083Z,1011.44
2019-01-22T01:35:46.634Z,1011.43
2019-01-22T01:36:27.221Z,1011.44
2019-01-22T01:37:07.787Z,1011.45
2019-01-22T01:37:48.355Z,1011.43
2019-01-22T01:38:28.936Z,1011.44
2019-01-22T01:39:09.487Z,1011.44
2019-01-22T01:39:50.052Z,1011.41
2019-01-22T01:40:30.604Z,1011.4
2019-01-22T01:41:11.171Z,1011.38
2019-01-22T01:41:51.720Z,1011.39
2019-01-22T01:42:32.273Z,1011.37
2019-01-22T01:43:12.820Z,1011.35
2019-01-22T01:43:53.378Z,1011.38
2019-01-22T01:44:33.934Z,1011.38
2019-01-22T01:45:14.482Z,1011.34
2019-01-22T01:45:55.048Z,1011.33
2019-01-22T01:46:35.610Z,1011.33
2019-01-22T01:47:16.178Z,1011.3
2019-01-22T01:47:56.748Z,1011.3
2019-01-22T01:48:37.297Z,1011.31
2019-01-22T01:49:17.865Z,1011.3
2019-01-22T01:49:58.433Z,1011.27
2019-01-22T01:50:38.975Z,1011.33
2019-01-22T01:51:19.530Z,1011.26
2019-01-22T01:52:00.088Z,1011.28
2019-01-22T01:52:40.639Z,1011.27
2019-01-22T01:53:23.874Z,1011.28
2019-01-22T01:54:01.760Z,1011.23
2019-01-22T01:54:42.320Z,1011.27
2019-01-22T01:55:22.869Z,1011.27
2019-01-22T01:56:03.422Z,1011.29
2019-01-22T01:56:43.977Z,1011.26
2019-01-22T01:57:24.526Z,1011.27
2019-01-22T01:58:05.096Z,1011.27
2019-01-22T01:58:45.633Z,1011.28
2019-01-22T01:59:26.185Z,1011.22
2019-01-22T02:00:06.742Z,1011.23
2019-01-22T02:00:47.302Z,1011.19
2019-01-22T02:01:27.859Z,1011.2
2019-01-22T02:02:08.399Z,1011.2
2019-01-22T02:02:48.959Z,1011.18
2019-01-22T02:03:29.517Z,1011.14
2019-01-22T02:04:10.057Z,1011.14
2019-01-22T02:04:50.598Z,1011.1
2019-01-22T02:05:31.169Z,1011.09
2019-01-22T02:06:11.747Z,1011.11
2019-01-22T02:06:52.314Z,1011.15
2019-01-22T02:07:32.891Z,1011.11
2019-01-22T02:08:13.466Z,1011.1
2019-01-22T02:08:54.010Z,1011.11
2019-01-22T02:09:34.573Z,1011.1
2019-01-22T02:10:15.163Z,1011.1
2019-01-22T02:10:55.719Z,1011.09
2019-01-22T02:11:36.282Z,1011.11
2019-01-22T02:12:16.858Z,1011.09
2019-01-22T02:12:57.409Z,1011.04
2019-01-22T02:13:37.955Z,1011.09
2019-01-22T02:14:18.512Z,1011.05
2019-01-22T02:14:59.080Z,1011.03
2019-01-22T02:15:39.630Z,1011.01
2019-01-22T02:16:20.194Z,1011.02
2019-01-22T02:17:00.727Z,1010.99
2019-01-22T02:17:41.286Z,1011
2019-01-22T02:18:21.842Z,1010.96
2019-01-22T02:19:02.415Z,1010.97
2019-01-22T02:19:42.969Z,1010.99
2019-01-22T02:20:23.551Z,1010.95
2019-01-22T02:21:04.135Z,1010.94
2019-01-22T02:21:44.692Z,1010.95
2019-01-22T02:22:25.272Z,1010.94
2019-01-22T02:23:05.817Z,1010.9
2019-01-22T02:23:46.383Z,1010.93
2019-01-22T02:24:26.940Z,1010.87
2019-01-22T02:25:07.509Z,1010.87
2019-01-22T02:25:48.083Z,1010.87
2019-01-22T02:26:28.649Z,1010.85
2019-01-22T02:27:09.228Z,1010.84
2019-01-22T02:27:49.785Z,1010.84
2019-01-22T02:28:30.364Z,1010.8
2019-01-22T02:29:10.916Z,1010.78
2019-01-22T02:29:51.471Z,1010.73
2019-01-22T02:30:32.028Z,1010.75
2019-01-22T02:31:12.607Z,1010.75
2019-01-22T02:31:53.156Z,1010.73
2019-01-22T02:32:33.715Z,1010.73
2019-01-22T02:33:14.263Z,1010.69
2019-01-22T02:33:54.823Z,1010.72
2019-01-22T02:34:35.386Z,1010.7
2019-01-22T02:35:15.984Z,1010.69
2019-01-22T02:35:56.561Z,1010.65
2019-01-22T02:36:37.118Z,1010.63
2019-01-22T02:37:17.699Z,1010.63
2019-01-22T02:37:58.280Z,1010.64
2019-01-22T02:38:38.849Z,1010.62
2019-01-22T02:39:19.403Z,1010.64
2019-01-22T02:39:59.973Z,1010.62
2019-01-22T02:40:40.570Z,1010.57
2019-01-22T02:41:21.159Z,1010.58
2019-01-22T02:42:01.708Z,1010.6
2019-01-22T02:42:42.277Z,1010.54
2019-01-22T02:43:22.826Z,1010.56
2019-01-22T02:44:03.378Z,1010.57
2019-01-22T02:44:43.924Z,1010.54
2019-01-22T02:45:24.484Z,1010.56
2019-01-22T02:46:05.044Z,1010.51
2019-01-22T02:46:45.613Z,1010.53
2019-01-22T02:47:26.187Z,1010.49
2019-01-22T02:48:06.757Z,1010.47
2019-01-22T02:48:47.303Z,1010.46
2019-01-22T02:49:27.890Z,1010.44
2019-01-22T02:50:08.465Z,1010.48
2019-01-22T02:50:49.040Z,1010.48
2019-01-22T02:51:29.597Z,1010.47
2019-01-22T02:52:10.171Z,1010.48
2019-01-22T02:52:50.734Z,1010.47
2019-01-22T02:53:38.511Z,1010.48
2019-01-22T02:54:11.914Z,1010.48
2019-01-22T02:54:52.485Z,1010.48
2019-01-22T02:55:33.060Z,1010.46
2019-01-22T02:56:13.646Z,1010.48
2019-01-22T02:56:54.213Z,1010.48
2019-01-22T02:57:34.786Z,1010.48
2019-01-22T02:58:15.359Z,1010.42
2019-01-22T02:58:55.927Z,1010.42
2019-01-22T02:59:36.483Z,1010.38
2019-01-22T03:00:17.043Z,1010.43
2019-01-22T03:00:57.596Z,1010.37
2019-01-22T03:01:38.143Z,1010.34
2019-01-22T03:02:18.712Z,1010.32
2019-01-22T03:02:59.303Z,1010.36
2019-01-22T03:03:39.857Z,1010.31
2019-01-22T03:04:20.403Z,1010.3
2019-01-22T03:05:00.956Z,1010.34
2019-01-22T03:05:41.529Z,1010.3
2019-01-22T03:06:22.082Z,1010.29
2019-01-22T03:07:02.671Z,1010.29
2019-01-22T03:07:43.229Z,1010.26
2019-01-22T03:08:23.798Z,1010.26
2019-01-22T03:09:04.385Z,1010.25
2019-01-22T03:09:44.959Z,1010.18
2019-01-22T03:10:25.525Z,1010.21
2019-01-22T03:11:06.077Z,1010.24
2019-01-22T03:11:46.635Z,1010.26
2019-01-22T03:12:27.171Z,1010.22
2019-01-22T03:13:07.734Z,1010.22
2019-01-22T03:13:48.294Z,1010.2
2019-01-22T03:14:28.864Z,1010.21
2019-01-22T03:15:09.419Z,1010.22
2019-01-22T03:15:49.991Z,1010.2
2019-01-22T03:16:30.548Z,1010.22
2019-01-22T03:17:11.124Z,1010.21
2019-01-22T03:17:51.669Z,1010.17
2019-01-22T03:18:32.228Z,1010.16
2019-01-22T03:19:12.797Z,1010.14
2019-01-22T03:19:53.346Z,1010.17
2019-01-22T03:20:33.898Z,1010.14
2019-01-22T03:21:14.442Z,1010.1
2019-01-22T03:21:55.018Z,1010.13
2019-01-22T03:22:35.586Z,1010.09
2019-01-22T03:23:16.121Z,1010.16
2019-01-22T03:23:56.677Z,1010.11
2019-01-22T03:24:37.237Z,1010.11
2019-01-22T03:25:17.847Z,1010.09
2019-01-22T03:25:58.363Z,1010.14
2019-01-22T03:26:38.927Z,1010.15
2019-01-22T03:27:19.502Z,1010.14
2019-01-22T03:28:00.074Z,1010.11
2019-01-22T03:28:40.640Z,1010.12
2019-01-22T03:29:21.214Z,1010.12
2019-01-22T03:30:01.772Z,1010.08
2019-01-22T03:30:42.335Z,1010.08
2019-01-22T03:31:22.896Z,1010.08
2019-01-22T03:32:03.457Z,1010.1
2019-01-22T03:32:44.018Z,1010.08
2019-01-22T03:33:24.590Z,1010.12
2019-01-22T03:34:05.154Z,1010.09
2019-01-22T03:34:45.717Z,1010.07
2019-01-22T03:35:26.278Z,1010.04
2019-01-22T03:36:06.843Z,1010.06
2019-01-22T03:36:47.408Z,1010.06
2019-01-22T03:37:28.935Z,1010.05
2019-01-22T03:38:09.506Z,1010.07
2019-01-22T03:38:50.084Z,1010.04
2019-01-22T03:39:30.644Z,1010.06
2019-01-22T03:40:11.224Z,1010.07
2019-01-22T03:40:51.789Z,1010.02
2019-01-22T03:41:32.361Z,1010
2019-01-22T03:42:12.911Z,1010.04
2019-01-22T03:42:53.463Z,1010.03
2019-01-22T03:43:34.038Z,1010
2019-01-22T03:44:14.644Z,1009.99
2019-01-22T03:44:55.175Z,1010.04
2019-01-22T03:45:35.759Z,1010.05
2019-01-22T03:46:16.338Z,1010.01
2019-01-22T03:46:56.912Z,1010.01
2019-01-22T03:47:37.491Z,1009.98
2019-01-22T03:48:18.062Z,1009.97
2019-01-22T03:48:58.643Z,1009.98
2019-01-22T03:49:39.183Z,1010
2019-01-22T03:50:19.752Z,1010.01
2019-01-22T03:51:00.304Z,1009.99
2019-01-22T03:51:40.862Z,1010.03
2019-01-22T03:52:21.420Z,1010.02
2019-01-22T03:53:01.971Z,1010.03
2019-01-22T03:53:42.519Z,1010.03
2019-01-22T03:54:23.065Z,1009.99
2019-01-22T03:55:03.629Z,1009.96
2019-01-22T03:55:44.179Z,1009.99
2019-01-22T03:56:24.735Z,1009.99
2019-01-22T03:57:05.280Z,1010.02
2019-01-22T03:57:45.834Z,1009.95
2019-01-22T03:58:26.382Z,1009.94
2019-01-22T03:59:06.932Z,1009.97
2019-01-22T03:59:47.485Z,1009.96
2019-01-22T04:00:28.027Z,1009.94
2019-01-22T04:01:08.575Z,1009.94
2019-01-22T04:01:49.129Z,1009.95
2019-01-22T04:02:29.684Z,1009.93
2019-01-22T04:03:10.230Z,1009.96
2019-01-22T04:03:50.790Z,1009.89
2019-01-22T04:04:31.338Z,1009.95
2019-01-22T04:05:11.888Z,1009.96
2019-01-22T04:05:52.441Z,1009.95
2019-01-22T04:06:32.988Z,1009.94
2019-01-22T04:07:13.534Z,1009.93
2019-01-22T04:07:54.334Z,1009.96
2019-01-22T04:08:34.895Z,1009.94
2019-01-22T04:09:15.462Z,1009.94
2019-01-22T04:09:55.999Z,1009.92
2019-01-22T04:10:36.596Z,1009.93
2019-01-22T04:11:17.161Z,1009.95
2019-01-22T04:11:57.735Z,1009.91
2019-01-22T04:12:38.291Z,1009.89
2019-01-22T04:13:18.863Z,1009.87
2019-01-22T04:13:59.455Z,1009.82
2019-01-22T04:14:40.016Z,1009.84
2019-01-22T04:15:20.610Z,1009.8
2019-01-22T04:16:01.179Z,1009.86
2019-01-22T04:16:41.725Z,1009.81
2019-01-22T04:17:22.308Z,1009.81
2019-01-22T04:18:02.900Z,1009.83
2019-01-22T04:18:43.456Z,1009.8
2019-01-22T04:19:24.087Z,1009.82
2019-01-22T04:20:04.689Z,1009.83
2019-01-22T04:20:45.203Z,1009.81
2019-01-22T04:21:25.754Z,1009.81
2019-01-22T04:22:06.320Z,1009.84
2019-01-22T04:22:46.879Z,1009.81
2019-01-22T04:23:27.449Z,1009.82
2019-01-22T04:24:07.984Z,1009.82
2019-01-22T04:24:48.528Z,1009.77
2019-01-22T04:25:29.090Z,1009.8
2019-01-22T04:26:09.665Z,1009.76
2019-01-22T04:26:50.275Z,1009.77
2019-01-22T04:27:30.824Z,1009.78
2019-01-22T04:28:11.393Z,1009.78
2019-01-22T04:28:51.958Z,1009.75
2019-01-22T04:29:32.563Z,1009.69
2019-01-22T04:30:13.154Z,1009.77
2019-01-22T04:30:53.744Z,1009.72
2019-01-22T04:31:34.276Z,1009.66
2019-01-22T04:32:14.861Z,1009.67
2019-01-22T04:32:55.435Z,1009.65
2019-01-22T04:33:35.999Z,1009.64
2019-01-22T04:34:16.551Z,1009.68
2019-01-22T04:34:57.144Z,1009.64
2019-01-22T04:35:37.718Z,1009.67
2019-01-22T04:36:18.306Z,1009.68
2019-01-22T04:36:58.882Z,1009.62
2019-01-22T04:37:39.474Z,1009.64
2019-01-22T04:38:20.051Z,1009.64
2019-01-22T04:39:00.618Z,1009.66
2019-01-22T04:39:41.154Z,1009.6
2019-01-22T04:40:21.759Z,1009.61
2019-01-22T04:41:02.337Z,1009.61
2019-01-22T04:41:42.924Z,1009.63
2019-01-22T04:42:23.494Z,1009.68
2019-01-22T04:43:04.066Z,1009.58
2019-01-22T04:43:44.632Z,1009.6
2019-01-22T04:44:25.184Z,1009.66
2019-01-22T04:45:05.738Z,1009.62
2019-01-22T04:45:46.290Z,1009.63
2019-01-22T04:46:26.857Z,1009.59
2019-01-22T04:47:07.441Z,1009.57
2019-01-22T04:47:48.007Z,1009.6
2019-01-22T04:48:28.564Z,1009.64
2019-01-22T04:49:09.169Z,1009.59
2019-01-22T04:49:49.741Z,1009.57
2019-01-22T04:50:30.285Z,1009.61
2019-01-22T04:51:10.849Z,1009.6
2019-01-22T04:51:51.395Z,1009.58
2019-01-22T04:52:31.949Z,1009.59
2019-01-22T04:53:12.560Z,1009.53
2019-01-22T04:53:53.101Z,1009.53
2019-01-22T04:54:33.686Z,1009.52
2019-01-22T04:55:14.271Z,1009.54
2019-01-22T04:55:54.833Z,1009.5
2019-01-22T04:56:35.397Z,1009.51
2019-01-22T04:57:15.955Z,1009.49
2019-01-22T04:57:56.505Z,1009.46
2019-01-22T04:58:37.086Z,1009.49
2019-01-22T04:59:17.631Z,1009.49
2019-01-22T04:59:58.178Z,1009.48
2019-01-22T05:00:38.734Z,1009.44
2019-01-22T05:01:19.307Z,1009.44
2019-01-22T05:01:59.854Z,1009.49
2019-01-22T05:02:40.412Z,1009.42
2019-01-22T05:03:20.963Z,1009.47
2019-01-22T05:04:01.532Z,1009.47
2019-01-22T05:04:42.094Z,1009.47
2019-01-22T05:05:22.629Z,1009.45
2019-01-22T05:06:03.184Z,1009.42
2019-01-22T05:06:43.731Z,1009.42
2019-01-22T05:07:24.287Z,1009.49
2019-01-22T05:08:04.861Z,1009.45
2019-01-22T05:08:45.432Z,1009.45
2019-01-22T05:09:26.036Z,1009.46
2019-01-22T05:10:06.605Z,1009.45
2019-01-22T05:10:47.148Z,1009.49
2019-01-22T05:11:27.714Z,1009.47
2019-01-22T05:12:08.266Z,1009.47
2019-01-22T05:12:48.812Z,1009.48
2019-01-22T05:13:29.373Z,1009.49
2019-01-22T05:14:09.926Z,1009.45
2019-01-22T05:14:50.498Z,1009.47
2019-01-22T05:15:31.074Z,1009.44
2019-01-22T05:16:11.681Z,1009.44
2019-01-22T05:16:52.258Z,1009.42
2019-01-22T05:17:32.855Z,1009.41
2019-01-22T05:18:13.408Z,1009.44
2019-01-22T05:18:53.966Z,1009.42
2019-01-22T05:19:34.566Z,1009.43
2019-01-22T05:20:15.121Z,1009.45
2019-01-22T05:20:55.692Z,1009.43
2019-01-22T05:21:36.245Z,1009.46
2019-01-22T05:22:16.816Z,1009.45
2019-01-22T05:22:57.351Z,1009.45
2019-01-22T05:23:37.949Z,1009.45
2019-01-22T05:24:18.495Z,1009.39
2019-01-22T05:24:59.049Z,1009.41
2019-01-22T05:25:39.621Z,1009.41
2019-01-22T05:26:20.185Z,1009.42
2019-01-22T05:27:00.739Z,1009.4
2019-01-22T05:27:41.319Z,1009.41
2019-01-22T05:28:21.855Z,1009.41
2019-01-22T05:29:02.408Z,1009.38
2019-01-22T05:29:42.959Z,1009.41
2019-01-22T05:30:23.522Z,1009.39
2019-01-22T05:31:04.164Z,1009.39
2019-01-22T05:31:44.715Z,1009.37
2019-01-22T05:32:25.275Z,1009.41
2019-01-22T05:33:05.851Z,1009.39
2019-01-22T05:33:46.397Z,1009.36
2019-01-22T05:34:26.942Z,1009.39
2019-01-22T05:35:07.533Z,1009.35
2019-01-22T05:35:48.090Z,1009.31
2019-01-22T05:36:28.639Z,1009.33
2019-01-22T05:37:09.196Z,1009.28
2019-01-22T05:37:49.759Z,1009.3
2019-01-22T05:38:30.312Z,1009.32
2019-01-22T05:39:10.887Z,1009.32
2019-01-22T05:39:51.445Z,1009.29
2019-01-22T05:40:32.025Z,1009.32
2019-01-22T05:41:12.594Z,1009.34
2019-01-22T05:41:53.151Z,1009.3
2019-01-22T05:42:33.705Z,1009.31
2019-01-22T05:43:14.266Z,1009.31
2019-01-22T05:43:54.803Z,1009.32
2019-01-22T05:44:35.368Z,1009.27
2019-01-22T05:45:15.941Z,1009.32
2019-01-22T05:45:56.499Z,1009.32
2019-01-22T05:46:37.056Z,1009.28
2019-01-22T05:47:17.620Z,1009.32
2019-01-22T05:47:58.190Z,1009.33
2019-01-22T05:48:38.747Z,1009.32
2019-01-22T05:49:19.303Z,1009.31
2019-01-22T05:49:59.848Z,1009.32
2019-01-22T05:50:40.411Z,1009.3
2019-01-22T05:51:20.984Z,1009.27
2019-01-22T05:52:01.532Z,1009.38
2019-01-22T05:52:42.088Z,1009.25
2019-01-22T05:53:22.632Z,1009.31
2019-01-22T05:54:03.188Z,1009.32
2019-01-22T05:54:43.737Z,1009.32
2019-01-22T05:55:24.293Z,1009.28
2019-01-22T05:56:04.861Z,1009.34
2019-01-22T05:56:45.425Z,1009.33
2019-01-22T05:57:26.026Z,1009.34
2019-01-22T05:58:06.599Z,1009.34
2019-01-22T05:58:47.135Z,1009.31
2019-01-22T05:59:27.685Z,1009.29
2019-01-22T06:00:08.240Z,1009.31
2019-01-22T06:00:48.796Z,1009.26
2019-01-22T06:01:29.357Z,1009.27
2019-01-22T06:02:09.905Z,1009.27
2019-01-22T06:02:50.472Z,1009.28
2019-01-22T06:03:31.024Z,1009.3
2019-01-22T06:04:11.576Z,1009.28
2019-01-22T06:04:52.134Z,1009.28
2019-01-22T06:05:32.689Z,1009.31
2019-01-22T06:06:13.234Z,1009.22
2019-01-22T06:06:53.809Z,1009.26
2019-01-22T06:07:34.603Z,1009.22
2019-01-22T06:08:15.194Z,1009.21
2019-01-22T06:08:55.774Z,1009.2
2019-01-22T06:09:36.332Z,1009.21
2019-01-22T06:10:16.894Z,1009.21
2019-01-22T06:10:57.476Z,1009.21
2019-01-22T06:11:38.084Z,1009.22
2019-01-22T06:12:18.638Z,1009.2
2019-01-22T06:12:59.202Z,1009.21
2019-01-22T06:13:39.765Z,1009.17
2019-01-22T06:14:20.333Z,1009.2
2019-01-22T06:15:00.947Z,1009.21
2019-01-22T06:15:41.506Z,1009.19
2019-01-22T06:16:22.108Z,1009.12
2019-01-22T06:17:02.675Z,1009.13
2019-01-22T06:17:43.241Z,1009.16
2019-01-22T06:18:23.795Z,1009.12
2019-01-22T06:19:04.337Z,1009.12
2019-01-22T06:19:44.900Z,1009.09
2019-01-22T06:20:25.484Z,1009.08
2019-01-22T06:22:38.283Z,1009.09
2019-01-22T06:23:18.844Z,1009.12
2019-01-22T06:23:59.399Z,1009.04
2019-01-22T06:24:39.954Z,1009.09
2019-01-22T06:25:20.503Z,1009.09
2019-01-22T06:26:01.057Z,1009.08
2019-01-22T06:26:41.606Z,1009.12
2019-01-22T06:27:22.191Z,1009.14
2019-01-22T06:28:02.742Z,1009.11
2019-01-22T06:28:43.350Z,1009.06
2019-01-22T06:29:23.937Z,1009.08
2019-01-22T06:30:04.494Z,1009.09
2019-01-22T06:30:45.046Z,1009.07
2019-01-22T06:31:25.602Z,1009.07
2019-01-22T06:32:06.155Z,1009.05
2019-01-22T06:32:46.722Z,1009.03
2019-01-22T06:33:27.275Z,1009.04
2019-01-22T06:34:07.861Z,1009.07
2019-01-22T06:34:48.417Z,1009.02
2019-01-22T06:35:28.962Z,1009.04
2019-01-22T06:36:09.544Z,1009.01
2019-01-22T06:36:50.107Z,1009.04
2019-01-22T06:37:30.670Z,1009.05
2019-01-22T06:38:11.209Z,1009.06
2019-01-22T06:38:51.779Z,1009.09
2019-01-22T06:39:32.324Z,1009.09
2019-01-22T06:40:12.883Z,1009.09
2019-01-22T06:40:53.465Z,1009.08
2019-01-22T06:41:34.068Z,1009.1
2019-01-22T06:42:14.704Z,1009.09
2019-01-22T06:42:55.234Z,1009.1
2019-01-22T06:43:35.790Z,1009.15
2019-01-22T06:44:16.451Z,1009.12
2019-01-22T06:44:57.031Z,1009.11
2019-01-22T06:45:37.590Z,1009.12
2019-01-22T06:46:18.140Z,1009.12
2019-01-22T06:46:58.700Z,1009.13
2019-01-22T06:47:39.363Z,1009.12
2019-01-22T06:48:19.899Z,1009.11
2019-01-22T06:49:00.473Z,1009.1
2019-01-22T06:49:41.043Z,1009.11
2019-01-22T06:50:21.653Z,1009.1
2019-01-22T06:51:02.238Z,1009.07
2019-01-22T06:51:42.799Z,1009.07
2019-01-22T06:52:23.380Z,1009.04
2019-01-22T06:53:03.939Z,1009.07
2019-01-22T06:53:44.492Z,1009.08
2019-01-22T06:54:25.036Z,1009.07
2019-01-22T06:55:05.590Z,1009.07
2019-01-22T06:55:46.152Z,1009.07
2019-01-22T06:56:26.709Z,1009.06
2019-01-22T06:57:07.267Z,1009.11
2019-01-22T06:57:47.853Z,1009.07
2019-01-22T06:58:28.439Z,1009.1
2019-01-22T06:59:09.069Z,1009.1
2019-01-22T06:59:49.626Z,1009.07
2019-01-22T07:00:30.190Z,1009.1
2019-01-22T07:01:10.757Z,1009.1
2019-01-22T07:01:51.322Z,1009.11
2019-01-22T07:02:31.894Z,1009.1
2019-01-22T07:03:12.451Z,1009.13
2019-01-22T07:03:53.029Z,1009.11
2019-01-22T07:04:33.575Z,1009.11
2019-01-22T07:05:14.121Z,1009.11
2019-01-22T07:05:54.679Z,1009.16
2019-01-22T07:06:35.240Z,1009.11
2019-01-22T07:07:15.866Z,1009.13
2019-01-22T07:07:56.937Z,1009.11
2019-01-22T07:08:37.557Z,1009.12
2019-01-22T07:09:18.112Z,1009.09
2019-01-22T07:10:00.200Z,1009.1
2019-01-22T07:10:39.213Z,1009.14
2019-01-22T07:11:19.773Z,1009.1
2019-01-22T07:12:00.335Z,1009.09
2019-01-22T07:12:41.649Z,1009.17
2019-01-22T07:13:22.219Z,1009.08
2019-01-22T07:14:02.800Z,1009.14
2019-01-22T07:14:43.377Z,1009.15
2019-01-22T07:15:23.938Z,1009.1
2019-01-22T07:16:04.487Z,1009.09
2019-01-22T07:16:45.065Z,1009.11
2019-01-22T07:17:25.633Z,1009.13
2019-01-22T07:18:06.226Z,1009.09
2019-01-22T07:18:46.764Z,1009.12
2019-01-22T07:19:27.309Z,1009.11
2019-01-22T07:20:07.931Z,1009.1
2019-01-22T07:20:48.508Z,1009.11
2019-01-22T07:21:29.071Z,1009.1
2019-01-22T07:22:09.938Z,1009.14
2019-01-22T07:22:50.275Z,1009.12
2019-01-22T07:23:30.853Z,1009.13
2019-01-22T07:24:11.514Z,1009.13
2019-01-22T07:24:52.050Z,1009.08
2019-01-22T07:25:32.617Z,1009.1
2019-01-22T07:26:13.167Z,1009.13
2019-01-22T07:26:53.746Z,1009.15
2019-01-22T07:27:34.330Z,1009.12
2019-01-22T07:28:14.855Z,1009.07
2019-01-22T07:28:55.439Z,1009.11
2019-01-22T07:29:36.019Z,1009.04
2019-01-22T07:30:16.575Z,1009.08
2019-01-22T07:30:57.186Z,1009.03
2019-01-22T07:31:37.735Z,1009.09
2019-01-22T07:32:18.305Z,1009.08
2019-01-22T07:32:58.897Z,1009.04
2019-01-22T07:33:39.454Z,1009.08
2019-01-22T07:34:20.038Z,1009.05
2019-01-22T07:35:00.610Z,1009.05
2019-01-22T07:35:41.178Z,1009.06
2019-01-22T07:36:21.735Z,1009.06
2019-01-22T07:37:02.286Z,1009.07
2019-01-22T07:37:42.842Z,1009.08
2019-01-22T07:38:23.381Z,1009.06
2019-01-22T07:39:04.047Z,1009.04
2019-01-22T07:39:44.623Z,1009.06
2019-01-22T07:40:25.267Z,1009.09
2019-01-22T07:41:05.821Z,1009.05
2019-01-22T07:41:46.388Z,1009.05
2019-01-22T07:42:26.982Z,1009.09
2019-01-22T07:43:08.443Z,1009.07
2019-01-22T07:43:48.092Z,1009.05
2019-01-22T07:44:28.642Z,1009.04
2019-01-22T07:45:09.235Z,1009.03
2019-01-22T07:45:49.832Z,1009.02
2019-01-22T07:46:30.383Z,1009
2019-01-22T07:47:10.955Z,1009.01
2019-01-22T07:47:51.505Z,1009
2019-01-22T07:48:32.056Z,1009.01
2019-01-22T07:49:12.602Z,1009
2019-01-22T07:49:53.166Z,1008.99
2019-01-22T07:50:33.748Z,1008.96
2019-01-22T07:51:14.283Z,1008.95
2019-01-22T07:51:54.840Z,1008.93
2019-01-22T07:52:35.396Z,1008.93
2019-01-22T07:53:15.963Z,1008.97
2019-01-22T07:53:56.495Z,1008.92
2019-01-22T07:54:37.069Z,1008.96
2019-01-22T07:55:17.624Z,1008.97
2019-01-22T07:55:58.182Z,1008.96
2019-01-22T07:56:38.746Z,1008.97
2019-01-22T07:57:19.295Z,1008.95
2019-01-22T07:57:59.859Z,1008.96
2019-01-22T07:58:40.418Z,1008.97
2019-01-22T07:59:21.052Z,1008.91
2019-01-22T08:00:01.633Z,1008.97
2019-01-22T08:00:42.157Z,1008.94
2019-01-22T08:01:22.710Z,1008.96
2019-01-22T08:02:03.268Z,1008.91
2019-01-22T08:02:43.817Z,1008.93
2019-01-22T08:03:24.376Z,1008.93
2019-01-22T08:04:04.923Z,1008.9
2019-01-22T08:04:45.530Z,1008.93
2019-01-22T08:05:26.142Z,1008.9
2019-01-22T08:06:06.696Z,1008.86
2019-01-22T08:06:47.418Z,1008.91
2019-01-22T08:07:27.947Z,1008.89
2019-01-22T08:08:08.525Z,1008.91
2019-01-22T08:08:49.087Z,1008.88
2019-01-22T08:09:29.636Z,1008.95
2019-01-22T08:10:10.185Z,1008.89
2019-01-22T08:10:50.743Z,1008.9
2019-01-22T08:11:31.293Z,1008.96
2019-01-22T08:12:11.845Z,1008.9
2019-01-22T08:12:52.465Z,1008.92
2019-01-22T08:13:33.039Z,1008.93
2019-01-22T08:14:13.602Z,1008.89